Time;durP1;ratioP1;P1;durP2;ratioP2;P2;SDS_P1;SDS_P2;PMS_P1;PMS_P2;Temp;Humidity;BMP_temperature;BMP_pressure;BME280_temperature;BME280_humidity;BME280_pressure;Samples;Min_cycle;Max_cycle;Signal;HPM_P1;HPM_P2
2021/01/22 00:01:18;;;;;;;91.32;45.85;;;282.40;1305.60;;;;;;5030606;28;20112;-51
2021/01/22 00:03:43;;;;;;;206.75;108.68;;;282.40;1331.20;;;;;;5030460;28;20017;-51
2021/01/22 00:06:11;;;;;;;81.75;34.92;;;282.20;1331.20;;;;;;5030521;28;20032;-51
2021/01/22 00:08:37;;;;;;;38.25;21.88;;;282.10;1331.20;;;;;;5030394;28;20061;-54
2021/01/22 00:11:03;;;;;;;21.33;12.55;;;282.10;1305.60;;;;;;5030377;28;20034;-52
2021/01/22 00:13:28;;;;;;;33.28;23.50;;;282.10;1305.60;;;;;;5030619;28;20089;-53
2021/01/22 00:15:54;;;;;;;32.25;19.35;;;282.00;1331.20;;;;;;5030339;28;20025;-52
2021/01/22 00:18:20;;;;;;;35.75;16.45;;;281.90;1331.20;;;;;;5030242;28;20029;-52
2021/01/22 00:20:45;;;;;;;100.55;41.67;;;282.00;1331.20;;;;;;5030165;28;20049;-51
2021/01/22 00:23:11;;;;;;;11.85;6.68;;;282.00;1331.20;;;;;;5030308;28;20116;-52
2021/01/22 00:25:37;;;;;;;14.35;8.13;;;282.10;1331.20;;;;;;5030048;28;20048;-53
2021/01/22 00:28:02;;;;;;;12.40;7.90;;;282.10;1331.20;;;;;;5030181;28;20033;-55
2021/01/22 00:30:28;;;;;;;82.95;49.50;;;282.10;1356.80;;;;;;5030305;28;20383;-52
2021/01/22 00:32:54;;;;;;;100.78;56.92;;;282.00;1356.80;;;;;;5029991;28;20094;-52
2021/01/22 00:35:20;;;;;;;93.07;55.33;;;281.80;1382.40;;;;;;5030292;28;20085;-52
2021/01/22 00:37:45;;;;;;;102.03;58.15;;;281.80;1382.40;;;;;;5030096;28;20589;-55
2021/01/22 00:40:11;;;;;;;87.95;53.20;;;281.90;1382.40;;;;;;5030303;28;20025;-51
2021/01/22 00:42:37;;;;;;;340.85;140.02;;;281.80;1382.40;;;;;;5030341;28;20108;-51
2021/01/22 00:45:05;;;;;;;220.73;95.38;;;281.70;1408.00;;;;;;5030077;28;20049;-52
2021/01/22 00:47:31;;;;;;;36.72;18.88;;;281.60;1433.60;;;;;;5029994;28;20033;-52
2021/01/22 00:49:57;;;;;;;39.78;17.92;;;281.60;1408.00;;;;;;5030000;28;20067;-50
2021/01/22 00:52:22;;;;;;;38.45;21.17;;;282.00;1356.80;;;;;;5029998;28;20033;-51
2021/01/22 00:54:48;;;;;;;176.48;75.40;;;282.00;1356.80;;;;;;5030035;28;20087;-50
2021/01/22 00:57:14;;;;;;;55.85;29.67;;;281.90;1382.40;;;;;;5029967;28;20028;-53
2021/01/22 00:59:39;;;;;;;40.42;23.08;;;281.90;1356.80;;;;;;5030050;28;20104;-52
2021/01/22 01:02:05;;;;;;;20.52;11.18;;;281.90;1382.40;;;;;;5030016;28;20033;-53
2021/01/22 01:04:31;;;;;;;18.33;10.27;;;281.90;1356.80;;;;;;5030027;28;20036;-52
2021/01/22 01:06:56;;;;;;;18.70;9.95;;;282.00;1331.20;;;;;;5030115;28;20431;-51
2021/01/22 01:09:22;;;;;;;26.70;15.32;;;282.10;1331.20;;;;;;5033616;28;20116;-50
2021/01/22 01:11:48;;;;;;;37.80;24.25;;;282.10;1356.80;;;;;;5034026;28;20025;-51
2021/01/22 01:14:14;;;;;;;49.90;27.42;;;282.00;1356.80;;;;;;5033798;28;20116;-51
2021/01/22 01:16:39;;;;;;;160.45;92.13;;;281.80;1382.40;;;;;;5033474;28;20414;-50
2021/01/22 01:19:05;;;;;;;145.30;87.88;;;281.60;1408.00;;;;;;5032103;28;20041;-49
2021/01/22 01:21:31;;;;;;;81.63;48.97;;;256.80;1408.00;;;;;;5022181;28;20041;-52
2021/01/22 01:23:57;;;;;;;66.20;34.97;;;256.60;1433.60;;;;;;5023416;28;20060;-49
2021/01/22 01:26:23;;;;;;;45.30;25.00;;;256.60;1408.00;;;;;;5021825;28;20123;-49
2021/01/22 01:28:49;;;;;;;35.05;19.80;;;256.80;1408.00;;;;;;5032366;28;20484;-51
2021/01/22 01:31:15;;;;;;;18.27;10.57;;;256.80;1408.00;;;;;;5031953;28;20033;-51
2021/01/22 01:33:41;;;;;;;19.00;10.15;;;256.80;1408.00;;;;;;5021258;28;20073;-50
2021/01/22 01:36:09;;;;;;;19.50;9.85;;;256.90;1382.40;;;;;;5032851;28;20029;-50
2021/01/22 01:38:35;;;;;;;20.20;12.85;;;256.90;1382.40;;;;;;5033349;28;20029;-51
2021/01/22 01:41:00;;;;;;;45.78;27.42;;;281.60;1408.00;;;;;;5033668;28;20383;-50
2021/01/22 01:43:26;;;;;;;36.33;21.00;;;281.60;1408.00;;;;;;5033195;28;20107;-51
2021/01/22 01:45:52;;;;;;;36.25;20.35;;;256.90;1382.40;;;;;;5033338;28;20032;-51
2021/01/22 01:48:18;;;;;;;17.90;9.60;;;256.80;1408.00;;;;;;5032981;28;20121;-50
2021/01/22 01:50:44;;;;;;;37.38;22.63;;;256.90;1408.00;;;;;;5033004;28;20034;-49
2021/01/22 01:53:10;;;;;;;48.80;23.80;;;281.60;1408.00;;;;;;5033109;28;20070;-50
2021/01/22 01:55:36;;;;;;;13.40;8.13;;;281.60;1408.00;;;;;;5032851;28;20407;-51
2021/01/22 01:58:03;;;;;;;53.75;31.45;;;256.90;1382.40;;;;;;5032801;28;20025;-50
2021/01/22 02:00:30;;;;;;;33.53;19.15;;;256.80;1433.60;;;;;;5033207;28;20041;-49
2021/01/22 02:02:56;;;;;;;33.17;19.20;;;256.80;1408.00;;;;;;5032802;28;20061;-53
2021/01/22 02:05:21;;;;;;;12.15;7.35;;;256.80;1408.00;;;;;;5031225;28;20065;-48
2021/01/22 02:07:47;;;;;;;15.40;8.48;;;256.70;1408.00;;;;;;5031290;28;20044;-52
2021/01/22 02:10:13;;;;;;;54.08;35.97;;;256.80;1408.00;;;;;;5031456;28;20029;-51
2021/01/22 02:12:40;;;;;;;42.42;24.25;;;256.90;1408.00;;;;;;5031346;28;20030;-50
2021/01/22 02:15:09;;;;;;;40.95;24.88;;;256.70;1459.20;;;;;;5031047;28;20037;-53
2021/01/22 02:17:35;;;;;;;25.25;15.43;;;256.50;1433.60;;;;;;5028641;28;20029;-51
2021/01/22 02:20:13;;;;;;;25.77;11.82;;;256.60;1433.60;;;;;;5031158;28;20040;-50
2021/01/22 02:22:39;;;;;;;35.88;23.23;;;256.70;1408.00;;;;;;5029626;28;20032;-51
2021/01/22 02:25:07;;;;;;;23.98;13.40;;;256.70;1408.00;;;;;;5032421;28;20437;-52
2021/01/22 02:27:35;;;;;;;29.50;17.67;;;256.70;1433.60;;;;;;5032506;28;20053;-51
2021/01/22 02:30:06;;;;;;;16.45;9.88;;;256.60;1433.60;;;;;;5032444;28;20072;-50
2021/01/22 02:32:34;;;;;;;31.65;25.60;;;256.50;1433.60;;;;;;5032491;28;20477;-50
2021/01/22 02:35:04;;;;;;;27.73;17.60;;;256.50;1459.20;;;;;;5032448;28;20475;-50
2021/01/22 02:37:30;;;;;;;28.25;18.35;;;256.30;1484.80;;;;;;5032227;28;20033;-50
2021/01/22 02:39:57;;;;;;;45.88;25.83;;;256.20;1510.40;;;;;;5032127;28;20175;-50
2021/01/22 02:42:24;;;;;;;34.38;18.83;;;256.20;1484.80;;;;;;5031929;28;20032;-51
2021/01/22 02:44:54;;;;;;;54.30;28.55;;;256.20;1484.80;;;;;;5032223;28;20034;-51
2021/01/22 02:47:21;;;;;;;145.10;66.45;;;256.20;1510.40;;;;;;5032039;28;20044;-51
2021/01/22 02:49:50;;;;;;;161.25;78.25;;;256.20;1484.80;;;;;;5032064;28;20061;-50
2021/01/22 02:52:16;;;;;;;31.40;19.25;;;256.40;1484.80;;;;;;5031701;28;20641;-51
2021/01/22 02:54:42;;;;;;;29.30;18.83;;;256.50;1459.20;;;;;;5032007;28;20033;-51
2021/01/22 02:57:36;;;;;;;18.90;9.82;;;256.50;1459.20;;;;;;5031775;28;20104;-51
2021/01/22 03:00:10;;;;;;;14.07;7.88;;;256.60;1459.20;;;;;;5031620;28;20035;-52
2021/01/22 03:02:53;;;;;;;19.73;10.88;;;256.60;1459.20;;;;;;5031693;28;20033;-50
2021/01/22 03:05:24;;;;;;;16.07;8.50;;;256.60;1459.20;;;;;;5031966;28;20029;-53
2021/01/22 03:07:55;;;;;;;15.38;7.72;;;256.60;1459.20;;;;;;5031788;28;20255;-50
2021/01/22 03:10:22;;;;;;;19.02;9.02;;;256.50;1459.20;;;;;;5031771;28;20052;-51
2021/01/22 03:12:49;;;;;;;16.10;9.18;;;256.50;1484.80;;;;;;5031543;28;20037;-50
2021/01/22 03:15:17;;;;;;;15.73;8.60;;;256.50;1484.80;;;;;;5031737;28;20100;-51
2021/01/22 03:17:43;;;;;;;19.92;9.20;;;256.50;1484.80;;;;;;5031215;28;20392;-51
2021/01/22 03:20:14;;;;;;;24.88;14.27;;;256.40;1484.80;;;;;;5031483;28;20360;-50
2021/01/22 03:22:40;;;;;;;19.85;9.88;;;256.50;1484.80;;;;;;5031358;28;20021;-50
2021/01/22 03:25:07;;;;;;;15.35;10.32;;;256.40;1484.80;;;;;;5031232;28;20025;-50
2021/01/22 03:27:33;;;;;;;19.15;10.45;;;256.50;1484.80;;;;;;5031133;28;20045;-51
2021/01/22 03:29:58;;;;;;;14.52;10.43;;;256.40;1484.80;;;;;;5030946;28;20053;-50
2021/01/22 03:32:24;;;;;;;18.23;12.25;;;256.40;1484.80;;;;;;5031171;28;20411;-51
2021/01/22 03:34:50;;;;;;;18.35;9.65;;;256.30;1484.80;;;;;;5031327;28;20034;-51
2021/01/22 03:37:15;;;;;;;13.10;7.35;;;256.40;1484.80;;;;;;5030975;28;20025;-51
2021/01/22 03:39:41;;;;;;;12.13;6.93;;;256.50;1484.80;;;;;;5030994;28;20479;-50
2021/01/22 03:42:07;;;;;;;11.70;8.15;;;256.50;1484.80;;;;;;5030776;28;20391;-50
2021/01/22 03:44:32;;;;;;;8.77;4.70;;;256.40;1484.80;;;;;;5031050;28;20376;-51
2021/01/22 03:46:58;;;;;;;14.73;9.15;;;256.40;1510.40;;;;;;5030977;28;20032;-51
2021/01/22 03:49:24;;;;;;;11.27;6.22;;;256.20;1510.40;;;;;;5030866;28;20053;-52
2021/01/22 03:51:50;;;;;;;12.38;5.45;;;256.20;1510.40;;;;;;5030770;28;20029;-52
2021/01/22 03:54:15;;;;;;;19.55;7.50;;;256.30;1484.80;;;;;;5030474;28;20079;-51
2021/01/22 03:56:42;;;;;;;12.45;9.57;;;256.30;1484.80;;;;;;5030764;28;20099;-50
2021/01/22 03:59:07;;;;;;;13.70;5.78;;;256.40;1484.80;;;;;;5031008;28;20116;-50
2021/01/22 04:01:33;;;;;;;8.00;5.97;;;256.30;1484.80;;;;;;5030465;28;20420;-52
2021/01/22 04:03:59;;;;;;;9.63;5.00;;;256.20;1510.40;;;;;;5030980;28;20057;-52
2021/01/22 04:06:25;;;;;;;12.27;6.63;;;256.20;1510.40;;;;;;5030582;28;20036;-52
2021/01/22 04:08:51;;;;;;;12.05;5.85;;;256.10;1510.40;;;;;;5030538;28;20384;-49
2021/01/22 04:11:16;;;;;;;10.85;5.78;;;256.20;1510.40;;;;;;5030411;28;20029;-51
2021/01/22 04:13:43;;;;;;;9.75;4.28;;;256.30;1484.80;;;;;;5030747;28;20034;-50
2021/01/22 04:16:11;;;;;;;15.25;8.00;;;256.40;1484.80;;;;;;5030465;28;20079;-49
2021/01/22 04:18:37;;;;;;;7.13;4.40;;;256.50;1459.20;;;;;;5030133;28;20120;-50
2021/01/22 04:21:03;;;;;;;15.85;11.40;;;256.60;1459.20;;;;;;5030220;28;20121;-52
2021/01/22 04:23:28;;;;;;;12.25;7.25;;;256.50;1484.80;;;;;;5030546;28;20383;-50
2021/01/22 04:25:54;;;;;;;8.57;4.43;;;256.30;1510.40;;;;;;5030271;28;20017;-51
2021/01/22 04:28:20;;;;;;;8.43;3.40;;;256.50;1459.20;;;;;;5030310;28;20506;-50
2021/01/22 04:30:45;;;;;;;5.32;2.60;;;256.50;1459.20;;;;;;5030043;28;20455;-51
2021/01/22 04:33:11;;;;;;;6.15;2.25;;;256.90;1408.00;;;;;;5030402;28;20041;-53
2021/01/22 04:35:37;;;;;;;8.50;5.05;;;281.80;1408.00;;;;;;5030183;28;20113;-50
2021/01/22 04:38:02;;;;;;;10.07;5.07;;;281.80;1408.00;;;;;;5029958;28;20387;-51
2021/01/22 04:40:28;;;;;;;9.13;5.85;;;281.70;1433.60;;;;;;5030331;28;20052;-51
2021/01/22 04:42:54;;;;;;;13.10;7.38;;;256.90;1433.60;;;;;;5029854;28;20365;-52
2021/01/22 04:45:20;;;;;;;14.93;10.45;;;256.70;1459.20;;;;;;5030395;28;20048;-51
2021/01/22 04:47:45;;;;;;;18.02;14.93;;;256.50;1459.20;;;;;;5029654;28;20406;-49
2021/01/22 04:50:14;;;;;;;13.05;7.38;;;256.30;1484.80;;;;;;5030107;28;20041;-50
2021/01/22 04:52:40;;;;;;;9.05;4.65;;;256.20;1484.80;;;;;;5029943;28;20037;-51
2021/01/22 04:55:07;;;;;;;9.10;3.70;;;256.00;1536.00;;;;;;5030000;28;20041;-51
2021/01/22 04:57:43;;;;;;;9.45;5.20;;;256.10;1510.40;;;;;;5029864;28;20032;-52
2021/01/22 05:00:11;;;;;;;10.18;6.20;;;256.20;1510.40;;;;;;5030118;28;20476;-54
2021/01/22 05:02:37;;;;;;;12.27;5.47;;;256.10;1510.40;;;;;;5030870;28;20025;-53
2021/01/22 05:05:04;;;;;;;8.48;4.75;;;231.10;1561.60;;;;;;5033706;28;20040;-51
2021/01/22 05:07:30;;;;;;;11.30;6.80;;;231.00;1587.20;;;;;;5033256;28;20022;-51
2021/01/22 05:09:57;;;;;;;18.10;11.60;;;230.90;1587.20;;;;;;5032912;28;20113;-50
2021/01/22 05:12:22;;;;;;;27.92;15.63;;;230.90;1612.80;;;;;;5029806;28;20030;-51
2021/01/22 05:14:48;;;;;;;265.92;148.70;;;231.00;1612.80;;;;;;5029880;28;20034;-50
2021/01/22 05:17:14;;;;;;;30.42;16.35;;;231.00;1587.20;;;;;;5029418;28;20482;-51
2021/01/22 05:19:43;;;;;;;43.67;24.75;;;231.10;1536.00;;;;;;5029986;28;20076;-50
2021/01/22 05:22:17;;;;;;;49.42;26.90;;;231.00;1587.20;;;;;;5029896;28;20055;-51
2021/01/22 05:24:44;;;;;;;112.25;54.20;;;230.90;1587.20;;;;;;5029474;28;20026;-51
2021/01/22 05:27:11;;;;;;;56.05;32.38;;;231.00;1561.60;;;;;;5029820;28;20034;-51
2021/01/22 05:29:39;;;;;;;36.45;23.08;;;231.00;1587.20;;;;;;5030079;28;20049;-51
2021/01/22 05:32:32;;;;;;;95.95;57.65;;;230.70;1612.80;;;;;;5029675;28;20033;-50
2021/01/22 05:34:58;;;;;;;189.30;100.90;;;230.60;1638.40;;;;;;5029885;28;20104;-50
2021/01/22 05:37:25;;;;;;;111.28;63.20;;;230.60;1612.80;;;;;;5029512;28;20036;-52
2021/01/22 05:40:12;;;;;;;147.52;74.80;;;230.60;1638.40;;;;;;5029528;28;20029;-49
2021/01/22 05:42:54;;;;;;;109.22;57.95;;;230.60;1638.40;;;;;;5029553;28;20135;-52
2021/01/22 05:45:41;;;;;;;155.23;71.47;;;230.50;1664.00;;;;;;5029665;28;20017;-51
2021/01/22 05:48:28;;;;;;;271.95;130.38;;;230.50;1664.00;;;;;;5029028;28;20482;-53
2021/01/22 05:51:00;;;;;;;61.70;35.53;;;230.50;1638.40;;;;;;5029601;28;20435;-51
2021/01/22 05:53:27;;;;;;;205.88;126.30;;;230.50;1638.40;;;;;;5030512;28;20069;-51
2021/01/22 05:56:06;;;;;;;67.90;37.85;;;230.50;1638.40;;;;;;5032897;28;20471;-49
2021/01/22 05:58:32;;;;;;;130.00;69.03;;;205.60;1689.60;;;;;;5033073;28;20084;-53
2021/01/22 06:01:17;;;;;;;86.68;49.53;;;205.70;1664.00;;;;;;5033406;28;20415;-51
2021/01/22 06:03:45;;;;;;;150.20;78.55;;;230.40;1638.40;;;;;;5032877;28;20030;-51
2021/01/22 06:06:12;;;;;;;102.38;59.25;;;230.40;1664.00;;;;;;5033034;28;20022;-50
2021/01/22 06:08:55;;;;;;;104.93;63.38;;;205.70;1664.00;;;;;;5032962;28;20017;-52
2021/01/22 06:11:23;;;;;;;186.40;105.77;;;230.40;1664.00;;;;;;5032913;28;20030;-50
2021/01/22 06:13:50;;;;;;;131.65;70.85;;;230.50;1664.00;;;;;;5032901;28;20040;-49
2021/01/22 06:16:21;;;;;;;153.77;101.90;;;230.50;1638.40;;;;;;5032732;28;20026;-50
2021/01/22 06:18:55;;;;;;;91.22;60.75;;;230.40;1689.60;;;;;;5032669;28;20040;-50
2021/01/22 06:21:24;;;;;;;35.67;23.85;;;230.50;1664.00;;;;;;5032679;28;20030;-51
2021/01/22 06:23:52;;;;;;;31.55;20.27;;;230.70;1638.40;;;;;;5032474;28;20025;-52
2021/01/22 06:26:19;;;;;;;33.95;20.85;;;230.80;1612.80;;;;;;5032781;28;20029;-50
2021/01/22 06:28:48;;;;;;;19.15;15.38;;;230.90;1612.80;;;;;;5032481;28;20029;-50
2021/01/22 06:31:16;;;;;;;24.35;17.25;;;231.00;1587.20;;;;;;5032430;28;20029;-50
2021/01/22 06:33:44;;;;;;;72.05;49.47;;;231.10;1587.20;;;;;;5032484;28;20044;-51
2021/01/22 06:36:10;;;;;;;39.03;25.60;;;231.20;1587.20;;;;;;5032453;28;20025;-50
2021/01/22 06:38:39;;;;;;;62.97;42.22;;;231.30;1561.60;;;;;;5032016;28;20029;-50
2021/01/22 06:41:05;;;;;;;52.83;39.50;;;256.00;1561.60;;;;;;5032194;28;20764;-51
2021/01/22 06:43:31;;;;;;;44.08;34.83;;;256.20;1536.00;;;;;;5032444;28;20041;-50
2021/01/22 06:46:00;;;;;;;98.90;74.43;;;256.40;1536.00;;;;;;5032278;28;20467;-51
2021/01/22 06:48:25;;;;;;;38.67;23.50;;;256.60;1510.40;;;;;;5031779;28;20046;-51
2021/01/22 06:50:51;;;;;;;30.25;18.85;;;256.70;1510.40;;;;;;5032210;28;20087;-52
2021/01/22 06:53:17;;;;;;;35.17;18.95;;;256.70;1510.40;;;;;;5031749;28;20029;-50
2021/01/22 06:55:51;;;;;;;88.68;49.97;;;281.60;1484.80;;;;;;5032205;28;20065;-51
2021/01/22 06:58:30;;;;;;;135.55;90.65;;;281.80;1459.20;;;;;;5031925;28;20476;-52
2021/01/22 07:00:58;;;;;;;108.22;71.75;;;282.00;1459.20;;;;;;5031830;28;20119;-51
2021/01/22 07:03:35;;;;;;;126.05;83.65;;;282.20;1433.60;;;;;;5031653;28;20021;-51
2021/01/22 07:06:24;;;;;;;223.75;134.70;;;282.20;1433.60;;;;;;5030925;28;20022;-50
2021/01/22 07:08:53;;;;;;;581.40;382.33;;;282.40;1408.00;;;;;;5031625;28;20471;-53
2021/01/22 07:11:19;;;;;;;230.02;165.88;;;282.50;1408.00;;;;;;5031997;28;20025;-51
2021/01/22 07:13:48;;;;;;;260.08;224.90;;;307.20;1408.00;;;;;;5031369;28;20041;-50
2021/01/22 07:16:17;;;;;;;29.30;25.15;;;307.30;1408.00;;;;;;5031436;28;20034;-50
2021/01/22 07:19:02;;;;;;;23.88;17.48;;;307.50;1408.00;;;;;;5031296;28;20472;-51
2021/01/22 07:21:30;;;;;;;45.97;26.40;;;307.60;1382.40;;;;;;5031957;28;20115;-52
2021/01/22 07:24:04;;;;;;;51.75;32.67;;;307.60;1382.40;;;;;;5031135;28;20033;-51
2021/01/22 07:26:40;;;;;;;164.57;114.97;;;307.60;1408.00;;;;;;5031450;28;20025;-51
2021/01/22 07:29:19;;;;;;;253.10;190.10;;;307.40;1433.60;;;;;;5031039;28;20091;-50
2021/01/22 07:31:52;;;;;;;181.45;127.10;;;256.90;1484.80;;;;;;5031242;28;20022;-52
2021/01/22 07:34:36;;;;;;;152.65;89.20;;;256.60;1510.40;;;;;;5031097;28;20506;-50
2021/01/22 07:37:05;;;;;;;;;;;256.80;1510.40;;;;;;5031610;28;20057;-51
2021/01/22 07:39:32;;;;;;;134.05;85.90;;;281.70;1484.80;;;;;;5030989;28;20313;-57
2021/01/22 07:42:13;;;;;;;265.20;193.18;;;282.10;1459.20;;;;;;5031218;28;20484;-56
2021/01/22 07:44:40;;;;;;;192.48;134.50;;;282.20;1484.80;;;;;;5031207;28;20029;-58
2021/01/22 07:47:07;;;;;;;267.98;203.20;;;307.20;1433.60;;;;;;5030647;28;20490;-57
2021/01/22 07:49:33;;;;;;;199.05;144.18;;;307.30;1459.20;;;;;;5030644;28;20057;-57
2021/01/22 07:52:05;;;;;;;173.20;125.30;;;307.50;1433.60;;;;;;5031077;28;20044;-57
2021/01/22 07:54:41;;;;;;;245.63;168.48;;;307.60;1433.60;;;;;;5030914;28;20037;-56
2021/01/22 07:57:26;;;;;;;160.23;117.78;;;307.80;1408.00;;;;;;5030633;28;20050;-57
2021/01/22 07:59:53;;;;;;;135.07;90.47;;;308.00;1382.40;;;;;;5030871;28;20079;-57
2021/01/22 08:02:21;;;;;;;121.10;79.45;;;332.90;1356.80;;;;;;5030560;28;20017;-57
2021/01/22 08:04:56;;;;;;;92.03;60.95;;;333.10;1356.80;;;;;;5030550;28;20109;-57
2021/01/22 08:07:37;;;;;;;66.07;43.03;;;333.20;1331.20;;;;;;5030800;28;20026;-57
2021/01/22 08:10:11;;;;;;;61.97;36.72;;;333.40;1305.60;;;;;;5030253;28;20021;-57
2021/01/22 08:12:38;;;;;;;48.25;32.72;;;333.50;1305.60;;;;;;5030362;28;20029;-56
2021/01/22 08:15:17;;;;;;;65.38;44.80;;;333.50;1280.00;;;;;;5030239;28;20467;-58
2021/01/22 08:17:45;;;;;;;120.38;85.00;;;333.70;1254.40;;;;;;5029818;28;20026;-57
2021/01/22 08:20:11;;;;;;;103.75;73.50;;;333.70;1280.00;;;;;;5030567;28;20042;-58
2021/01/22 08:22:37;;;;;;;103.65;74.43;;;333.70;1305.60;;;;;;5030349;28;20029;-58
2021/01/22 08:25:03;;;;;;;176.10;122.68;;;358.50;1254.40;;;;;;5030149;28;20081;-58
2021/01/22 08:27:29;;;;;;;265.55;172.07;;;358.70;1254.40;;;;;;5030534;28;20037;-57
2021/01/22 08:29:55;;;;;;;183.27;123.63;;;358.80;1254.40;;;;;;5030059;28;20026;-58
2021/01/22 08:32:22;;;;;;;102.38;74.80;;;358.70;1254.40;;;;;;5030291;28;20789;-58
2021/01/22 08:34:48;;;;;;;110.35;78.35;;;358.70;1254.40;;;;;;5030157;28;20082;-58
2021/01/22 08:37:15;;;;;;;72.80;53.20;;;359.00;1228.80;;;;;;5030042;28;20037;-59
2021/01/22 08:39:58;;;;;;;78.60;55.28;;;359.30;1203.20;;;;;;5030123;28;20542;-58
2021/01/22 08:42:29;;;;;;;99.72;74.18;;;384.10;1177.60;;;;;;5029838;28;20065;-58
2021/01/22 08:44:59;;;;;;;110.20;83.05;;;384.70;1177.60;;;;;;5029718;28;20376;-58
2021/01/22 08:47:26;;;;;;;70.88;44.63;;;384.40;1177.60;;;;;;5029873;28;20025;-58
2021/01/22 08:49:54;;;;;;;30.15;16.98;;;384.60;1152.00;;;;;;5030301;28;20072;-58
2021/01/22 08:52:20;;;;;;;73.55;39.47;;;384.90;1126.40;;;;;;5030238;28;20525;-57
2021/01/22 08:54:45;;;;;;;161.07;92.85;;;409.60;1152.00;;;;;;5029847;28;20037;-58
2021/01/22 08:57:11;;;;;;;67.03;41.00;;;409.70;1152.00;;;;;;5029940;28;20032;-58
2021/01/22 08:59:54;;;;;;;43.95;22.23;;;409.60;1152.00;;;;;;5029900;28;20053;-58
2021/01/22 09:02:39;;;;;;;41.83;24.98;;;409.70;1152.00;;;;;;5030226;28;20365;-59
2021/01/22 09:05:11;;;;;;;25.42;16.50;;;409.70;1152.00;;;;;;5029762;28;20109;-58
2021/01/22 09:07:37;;;;;;;27.35;14.02;;;409.80;1126.40;;;;;;5029642;28;20434;-58
2021/01/22 09:10:05;;;;;;;19.98;10.52;;;410.00;1100.80;;;;;;5029911;28;20029;-58
2021/01/22 09:12:33;;;;;;;37.38;22.25;;;410.00;1100.80;;;;;;5030155;28;20053;-57
2021/01/22 09:15:04;;;;;;;14.75;10.68;;;409.80;1126.40;;;;;;5030027;28;20030;-59
2021/01/22 09:17:37;;;;;;;14.88;6.75;;;409.70;1100.80;;;;;;5029944;28;20068;-57
2021/01/22 09:20:14;;;;;;;27.00;13.20;;;409.80;1100.80;;;;;;5029730;28;20038;-59
2021/01/22 09:22:41;;;;;;;22.17;13.38;;;409.70;1126.40;;;;;;5029944;28;20025;-59
2021/01/22 09:25:10;;;;;;;19.80;12.52;;;384.90;1126.40;;;;;;5029620;28;20026;-58
2021/01/22 09:27:37;;;;;;;50.63;32.72;;;409.60;1126.40;;;;;;5029830;28;20049;-58
2021/01/22 09:30:05;;;;;;;23.83;16.10;;;384.90;1126.40;;;;;;5033394;28;20070;-60
2021/01/22 09:32:30;;;;;;;17.17;11.27;;;384.70;1126.40;;;;;;5033556;28;20036;-58
2021/01/22 09:34:56;;;;;;;28.65;18.15;;;384.60;1126.40;;;;;;5033233;28;20128;-68
2021/01/22 09:37:24;;;;;;;34.83;20.17;;;384.50;1152.00;;;;;;5027441;28;20057;-61
2021/01/22 09:39:49;;;;;;;16.95;13.48;;;384.40;1152.00;;;;;;5033622;28;20030;-66
2021/01/22 09:42:16;;;;;;;77.65;54.25;;;384.40;1152.00;;;;;;5032860;28;20029;-60
2021/01/22 09:44:41;;;;;;;25.38;18.15;;;384.50;1177.60;;;;;;5033202;28;20464;-70
2021/01/22 09:47:07;;;;;;;30.27;18.02;;;384.50;1152.00;;;;;;5033296;28;20044;-59
2021/01/22 09:49:33;;;;;;;31.85;20.30;;;384.70;1126.40;;;;;;5033020;28;20045;-60
2021/01/22 09:51:59;;;;;;;30.33;20.75;;;384.90;1126.40;;;;;;5032884;28;20431;-71
2021/01/22 09:54:24;;;;;;;47.20;35.60;;;409.70;1152.00;;;;;;5033135;28;20033;-62
2021/01/22 09:56:50;;;;;;;40.85;30.67;;;409.60;1177.60;;;;;;5033366;28;20390;-59
2021/01/22 09:59:17;;;;;;;25.25;17.73;;;409.70;1152.00;;;;;;5032669;28;20050;-62
2021/01/22 10:01:42;;;;;;;16.92;15.02;;;409.70;1152.00;;;;;;5032809;28;20024;-58
2021/01/22 10:04:08;;;;;;;23.67;20.10;;;409.60;1152.00;;;;;;5033575;28;20053;-56
2021/01/22 10:06:34;;;;;;;22.60;14.85;;;409.70;1152.00;;;;;;5032725;28;20024;-55
2021/01/22 10:08:59;;;;;;;10.52;8.18;;;409.70;1152.00;;;;;;5032894;28;20026;-55
2021/01/22 10:11:25;;;;;;;18.75;13.30;;;409.60;1152.00;;;;;;5032905;28;20056;-55
2021/01/22 10:13:54;;;;;;;15.05;9.45;;;384.90;1152.00;;;;;;5032983;28;20520;-55
2021/01/22 10:16:24;;;;;;;35.15;22.75;;;409.60;1152.00;;;;;;5032789;28;20352;-56
2021/01/22 10:18:54;;;;;;;9.60;5.53;;;409.70;1152.00;;;;;;5032692;28;20060;-55
2021/01/22 10:21:21;;;;;;;11.93;9.40;;;409.60;1126.40;;;;;;5032781;28;20036;-56
2021/01/22 10:23:48;;;;;;;77.57;56.78;;;384.80;1126.40;;;;;;5032775;28;20041;-55
2021/01/22 10:26:15;;;;;;;25.55;16.27;;;384.90;1152.00;;;;;;5032474;28;20084;-55
2021/01/22 10:28:41;;;;;;;20.40;13.98;;;409.60;1152.00;;;;;;5032414;28;20067;-54
2021/01/22 10:31:07;;;;;;;43.50;32.78;;;384.90;1126.40;;;;;;5031847;28;20037;-57
2021/01/22 10:33:33;;;;;;;47.83;36.03;;;384.90;1177.60;;;;;;5021072;28;20030;-55
2021/01/22 10:35:58;;;;;;;95.25;78.32;;;409.60;1177.60;;;;;;5023177;28;20091;-57
2021/01/22 10:38:26;;;;;;;16.50;11.05;;;409.60;1177.60;;;;;;5014751;28;20030;-56
2021/01/22 10:40:52;;;;;;;56.55;43.03;;;384.90;1126.40;;;;;;5012060;28;20026;-54
2021/01/22 10:43:18;;;;;;;68.50;52.80;;;409.60;1177.60;;;;;;5012412;28;20097;-55
2021/01/22 10:45:43;;;;;;;79.80;62.85;;;409.70;1177.60;;;;;;5012254;28;20026;-55
2021/01/22 10:48:09;;;;;;;43.17;32.28;;;409.90;1177.60;;;;;;5011988;28;20530;-56
2021/01/22 10:50:35;;;;;;;25.48;15.32;;;409.90;1152.00;;;;;;5012049;28;20034;-55
2021/01/22 10:53:00;;;;;;;42.30;36.80;;;410.20;1152.00;;;;;;5012275;28;20030;-55
2021/01/22 10:55:26;;;;;;;32.75;22.33;;;410.50;1126.40;;;;;;5012326;28;20038;-55
2021/01/22 10:57:52;;;;;;;40.50;31.30;;;435.20;1075.20;;;;;;5012474;28;20984;-58
2021/01/22 11:00:18;;;;;;;50.03;30.63;;;435.20;1100.80;;;;;;5012191;28;20458;-59
2021/01/22 11:02:44;;;;;;;12.45;9.02;;;435.40;1075.20;;;;;;5011937;28;20018;-56
2021/01/22 11:05:10;;;;;;;42.20;26.25;;;435.50;1075.20;;;;;;5012015;28;20384;-55
2021/01/22 11:07:35;;;;;;;14.25;6.60;;;435.60;1075.20;;;;;;5012188;28;20095;-56
2021/01/22 11:10:03;;;;;;;13.60;9.15;;;435.60;1100.80;;;;;;5012173;28;20472;-57
2021/01/22 11:12:28;;;;;;;9.15;4.18;;;435.50;1075.20;;;;;;5012179;28;20060;-56
2021/01/22 11:14:54;;;;;;;11.10;5.05;;;435.60;1049.60;;;;;;5011625;28;20112;-57
2021/01/22 11:17:20;;;;;;;8.63;4.13;;;435.60;1075.20;;;;;;5011814;28;20033;-55
2021/01/22 11:19:45;;;;;;;44.80;28.77;;;435.30;1049.60;;;;;;5011686;28;20040;-56
2021/01/22 11:22:12;;;;;;;11.45;6.18;;;435.30;1100.80;;;;;;5011887;28;20030;-56
2021/01/22 11:24:38;;;;;;;184.52;124.63;;;435.20;1126.40;;;;;;5011739;28;20072;-58
2021/01/22 11:27:03;;;;;;;12.88;5.85;;;410.40;1126.40;;;;;;5011558;28;20026;-56
2021/01/22 11:29:29;;;;;;;17.90;10.20;;;410.20;1100.80;;;;;;5011870;28;20054;-56
2021/01/22 11:31:55;;;;;;;65.25;41.67;;;410.40;1126.40;;;;;;5011518;28;20022;-56
2021/01/22 11:34:20;;;;;;;25.17;15.98;;;410.50;1126.40;;;;;;5011463;28;20388;-56
2021/01/22 11:36:46;;;;;;;80.90;54.25;;;410.30;1177.60;;;;;;5011152;28;20061;-57
2021/01/22 11:39:12;;;;;;;28.55;19.35;;;410.30;1126.40;;;;;;5011458;28;20030;-56
2021/01/22 11:41:38;;;;;;;17.30;12.00;;;410.20;1126.40;;;;;;5011602;28;20075;-56
2021/01/22 11:44:05;;;;;;;23.23;12.48;;;410.20;1126.40;;;;;;5011160;28;20511;-56
2021/01/22 11:46:32;;;;;;;13.77;8.32;;;410.30;1152.00;;;;;;5011383;28;20029;-55
2021/01/22 11:48:58;;;;;;;6.60;4.18;;;410.30;1126.40;;;;;;5010984;28;20084;-56
2021/01/22 11:51:24;;;;;;;22.77;9.57;;;410.30;1126.40;;;;;;5010344;28;20101;-56
2021/01/22 11:53:50;;;;;;;16.83;11.43;;;410.30;1126.40;;;;;;5011119;28;20125;-58
2021/01/22 11:56:17;;;;;;;8.30;4.38;;;410.40;1126.40;;;;;;5011265;28;20025;-56
2021/01/22 11:58:43;;;;;;;8.13;2.92;;;410.50;1126.40;;;;;;5010823;28;20037;-57
2021/01/22 12:01:09;;;;;;;13.82;8.48;;;410.50;1126.40;;;;;;5010916;28;20018;-56
2021/01/22 12:03:34;;;;;;;18.27;10.18;;;435.30;1126.40;;;;;;5010874;28;20029;-56